Time;durP1;ratioP1;P1;durP2;ratioP2;P2;SDS_P1;SDS_P2;PMS_P1;PMS_P2;Temp;Humidity;BMP_temperature;BMP_pressure;BME280_temperature;BME280_humidity;BME280_pressure;Samples;Min_cycle;Max_cycle;Signal;HPM_P1;HPM_P2
2022/12/14 00:01:18;;;;;;;100.60;39.97;;;-1.20;99.90;;;;;;4954716;29;20038;-66
2022/12/14 00:03:44;;;;;;;95.72;38.75;;;-1.30;99.90;;;;;;4955305;29;20029;-66
2022/12/14 00:06:15;;;;;;;102.13;41.50;;;-1.30;99.90;;;;;;4954977;29;20019;-66
2022/12/14 00:08:41;;;;;;;107.00;42.65;;;-1.40;99.90;;;;;;4954922;29;20043;-66
2022/12/14 00:11:07;;;;;;;92.75;37.45;;;-1.40;99.90;;;;;;4954966;29;20486;-65
2022/12/14 00:13:34;;;;;;;97.32;39.70;;;-1.40;99.90;;;;;;4954929;28;20478;-65
2022/12/14 00:16:07;;;;;;;96.75;38.70;;;-1.50;99.90;;;;;;4954347;28;20510;-66
2022/12/14 00:18:33;;;;;;;;;;;-1.50;99.90;;;;;;4955060;29;20067;-66
2022/12/14 00:21:07;;;;;;;93.25;38.47;;;-1.50;99.90;;;;;;4956699;28;19979;-65
2022/12/14 00:23:34;;;;;;;92.80;38.50;;;-1.60;99.90;;;;;;4972976;28;20118;-65
2022/12/14 00:26:09;;;;;;;98.78;39.17;;;-1.60;99.90;;;;;;4958542;29;20082;-65
2022/12/14 00:28:36;;;;;;;97.70;38.85;;;-1.60;99.90;;;;;;4958597;28;20090;-65
2022/12/14 00:31:02;;;;;;;104.47;42.92;;;-1.60;99.90;;;;;;4958742;29;20065;-66
2022/12/14 00:33:27;;;;;;;95.10;42.40;;;-1.60;99.90;;;;;;4958030;29;20063;-66
2022/12/14 00:35:53;;;;;;;109.90;42.83;;;-1.60;99.90;;;;;;4958622;29;20549;-66
2022/12/14 00:38:18;;;;;;;94.20;40.25;;;-1.70;99.90;;;;;;4958236;29;20063;-66
2022/12/14 00:40:44;;;;;;;105.38;44.13;;;-1.70;99.90;;;;;;4958585;29;20026;-66
2022/12/14 00:43:09;;;;;;;106.80;44.03;;;-1.80;99.90;;;;;;4957824;29;20680;-66
2022/12/14 00:45:35;;;;;;;117.63;45.05;;;-1.80;99.90;;;;;;4958517;28;20030;-66
2022/12/14 00:48:01;;;;;;;101.85;42.17;;;-1.80;99.90;;;;;;4958321;29;20023;-65
2022/12/14 00:50:27;;;;;;;102.65;43.63;;;-1.90;99.90;;;;;;4957834;28;20035;-66
2022/12/14 00:52:52;;;;;;;113.32;45.58;;;-1.90;99.90;;;;;;4958097;28;20023;-66
2022/12/14 00:55:18;;;;;;;93.78;45.45;;;-2.00;99.90;;;;;;4958067;29;20038;-66
2022/12/14 00:57:43;;;;;;;102.78;42.80;;;-2.00;99.90;;;;;;4957952;29;20023;-65
2022/12/14 01:00:10;;;;;;;106.47;45.85;;;-2.00;99.90;;;;;;4958149;29;20034;-66
2022/12/14 01:02:35;;;;;;;124.90;49.38;;;-2.10;99.90;;;;;;4957492;28;20050;-66
2022/12/14 01:05:01;;;;;;;109.88;46.42;;;-2.10;99.90;;;;;;4958153;29;20435;-66
2022/12/14 01:07:26;;;;;;;115.30;48.50;;;-2.20;99.90;;;;;;4957755;29;20370;-65
2022/12/14 01:09:52;;;;;;;104.47;45.50;;;-2.20;99.90;;;;;;4958047;29;20023;-65
2022/12/14 01:12:17;;;;;;;114.05;47.83;;;-2.20;99.90;;;;;;4957457;29;20398;-65
2022/12/14 01:14:45;;;;;;;107.40;48.20;;;-2.20;99.90;;;;;;4957724;29;20070;-65
2022/12/14 01:17:10;;;;;;;109.07;47.08;;;-2.20;99.90;;;;;;4957629;28;20075;-66
2022/12/14 01:19:36;;;;;;;103.40;49.92;;;-2.20;99.90;;;;;;4957717;29;20455;-66
2022/12/14 01:22:01;;;;;;;114.38;48.42;;;-2.20;99.90;;;;;;4957868;28;20387;-66
2022/12/14 01:24:27;;;;;;;136.80;51.50;;;-2.20;99.90;;;;;;4957016;29;20031;-66
2022/12/14 01:26:52;;;;;;;117.13;53.33;;;-2.20;99.90;;;;;;4957692;29;20034;-66
2022/12/14 01:29:18;;;;;;;120.88;51.80;;;-2.30;99.90;;;;;;4947754;28;20087;-66
2022/12/14 01:31:43;;;;;;;138.35;53.33;;;-2.30;99.90;;;;;;4954734;28;20035;-66
2022/12/14 01:34:09;;;;;;;136.40;53.35;;;-2.30;99.90;;;;;;4956549;29;20036;-66
2022/12/14 01:36:35;;;;;;;130.20;54.15;;;-2.30;99.90;;;;;;4957165;28;20375;-66
2022/12/14 01:39:13;;;;;;;125.97;51.30;;;-2.30;99.90;;;;;;4956659;28;20486;-65
2022/12/14 01:41:46;;;;;;;116.95;56.10;;;-2.20;99.90;;;;;;4956446;29;20035;-66
2022/12/14 01:44:11;;;;;;;137.43;54.33;;;-2.20;99.90;;;;;;4957484;28;20038;-66
2022/12/14 01:47:09;;;;;;;121.63;55.60;;;-2.20;99.90;;;;;;4969023;28;20471;-66
2022/12/14 01:49:53;;;;;;;133.90;53.38;;;-2.20;99.90;;;;;;4962740;28;20086;-66
2022/12/14 01:52:47;;;;;;;125.00;52.72;;;-2.20;99.90;;;;;;4976616;28;20030;-66
2022/12/14 01:55:21;;;;;;;113.85;53.00;;;-2.20;99.90;;;;;;4967358;28;20023;-66
2022/12/14 01:57:56;;;;;;;128.57;54.33;;;-2.20;99.90;;;;;;4973016;28;20032;-66
2022/12/14 02:00:22;;;;;;;125.72;55.58;;;-2.30;99.90;;;;;;4967602;28;20027;-66
2022/12/14 02:02:53;;;;;;;113.32;51.75;;;-2.30;99.90;;;;;;4957103;28;20166;-66
2022/12/14 02:05:22;;;;;;;117.60;52.67;;;-2.30;99.90;;;;;;4957000;29;20027;-66
2022/12/14 02:07:50;;;;;;;117.55;54.13;;;-2.20;99.90;;;;;;4956268;29;20027;-65
2022/12/14 02:10:16;;;;;;;133.07;57.25;;;-2.20;99.90;;;;;;4964289;28;20030;-65
2022/12/14 02:12:47;;;;;;;116.30;52.92;;;-2.30;99.90;;;;;;4975950;28;20394;-66
2022/12/14 02:15:13;;;;;;;118.47;52.25;;;-2.30;99.90;;;;;;4975868;28;20035;-66
2022/12/14 02:17:42;;;;;;;130.32;52.03;;;-2.30;99.90;;;;;;5042712;23;20050;-70
2022/12/14 02:20:09;;;;;;;129.75;53.80;;;-2.30;99.90;;;;;;4995887;28;20033;-72
2022/12/14 02:22:53;;;;;;;126.22;52.92;;;-2.30;99.90;;;;;;5008303;28;20032;-72
2022/12/14 02:25:59;;;;;;;123.45;55.42;;;-2.30;99.90;;;;;;5015911;28;20026;-72
2022/12/14 02:28:45;;;;;;;123.15;52.63;;;-2.40;99.90;;;;;;4999665;28;20437;-72
2022/12/14 02:31:35;;;;;;;128.93;52.80;;;-2.40;99.90;;;;;;4995864;28;20034;-71
2022/12/14 02:34:11;;;;;;;121.82;52.15;;;-2.40;99.90;;;;;;4996266;28;20490;-71
2022/12/14 02:36:56;;;;;;;119.97;53.50;;;-2.50;99.90;;;;;;4995583;28;20110;-72
2022/12/14 02:39:48;;;;;;;125.28;51.22;;;-2.50;99.90;;;;;;4995958;28;20045;-71
2022/12/14 02:42:23;;;;;;;108.72;49.42;;;-2.50;99.90;;;;;;4994873;28;20027;-72
2022/12/14 02:45:04;;;;;;;117.50;51.60;;;-2.60;99.90;;;;;;4993514;28;20398;-71
2022/12/14 02:47:53;;;;;;;125.97;52.65;;;-2.50;99.90;;;;;;4995361;28;20383;-72
2022/12/14 02:50:42;;;;;;;118.43;49.78;;;-2.50;99.90;;;;;;4992039;28;20026;-72
2022/12/14 02:53:11;;;;;;;126.28;50.85;;;-2.60;99.90;;;;;;4994675;28;20027;-72
2022/12/14 02:55:43;;;;;;;115.10;48.55;;;-2.60;99.90;;;;;;4987433;28;20031;-71
2022/12/14 02:58:19;;;;;;;120.75;49.90;;;-2.60;99.90;;;;;;4975652;28;20053;-72
2022/12/14 03:00:46;;;;;;;129.35;51.72;;;-2.70;99.90;;;;;;4975452;28;20031;-72
2022/12/14 03:03:12;;;;;;;127.45;50.83;;;-2.60;99.90;;;;;;4980611;28;20021;-72
2022/12/14 03:05:37;;;;;;;127.38;50.78;;;-2.60;99.90;;;;;;4995119;28;20440;-71
2022/12/14 03:08:11;;;;;;;126.90;51.60;;;-2.60;99.90;;;;;;4994487;28;20522;-72
2022/12/14 03:10:43;;;;;;;126.00;52.38;;;-2.50;99.90;;;;;;4995158;28;20019;-72
2022/12/14 03:13:26;;;;;;;117.50;49.97;;;-2.60;99.90;;;;;;4995231;28;20026;-71
2022/12/14 03:16:28;;;;;;;124.50;50.42;;;-2.70;99.90;;;;;;4995317;28;20023;-72
2022/12/14 03:19:06;;;;;;;134.23;53.05;;;-2.70;99.90;;;;;;4994655;28;20066;-71
2022/12/14 03:21:39;;;;;;;126.20;53.53;;;-2.70;99.90;;;;;;4995211;28;20493;-71
2022/12/14 03:24:11;;;;;;;125.43;53.00;;;-2.60;99.90;;;;;;4995163;28;20026;-71
2022/12/14 03:26:53;;;;;;;124.97;53.33;;;-2.70;99.90;;;;;;4994420;28;20473;-72
2022/12/14 03:29:25;;;;;;;117.38;52.53;;;-2.70;99.90;;;;;;4995076;28;20470;-71
2022/12/14 03:31:57;;;;;;;115.88;49.28;;;-2.80;99.90;;;;;;4994815;28;20058;-71
2022/12/14 03:34:58;;;;;;;126.25;52.72;;;-2.70;99.90;;;;;;4994793;28;20497;-71
2022/12/14 03:37:35;;;;;;;148.82;53.70;;;-2.80;99.90;;;;;;4990348;28;20038;-72
2022/12/14 03:40:01;;;;;;;117.80;52.95;;;-2.60;99.90;;;;;;4990584;28;20160;-72
2022/12/14 03:42:38;;;;;;;126.10;52.75;;;-2.70;99.90;;;;;;4994285;28;20053;-72
2022/12/14 03:45:50;;;;;;;124.60;52.22;;;-2.60;99.90;;;;;;4989057;28;20033;-72
2022/12/14 03:48:38;;;;;;;138.75;53.65;;;-2.50;99.90;;;;;;4952866;28;20042;-71
2022/12/14 03:51:26;;;;;;;126.88;51.38;;;-2.50;99.90;;;;;;4994134;28;20033;-71
2022/12/14 03:54:13;;;;;;;133.15;54.90;;;-2.40;99.90;;;;;;4994226;28;20445;-72
2022/12/14 03:56:49;;;;;;;116.80;53.17;;;-2.50;99.90;;;;;;4996308;28;20030;-72
2022/12/14 03:59:25;;;;;;;130.50;51.90;;;-2.40;99.90;;;;;;4979239;28;20023;-71
2022/12/14 04:02:00;;;;;;;133.90;53.28;;;-2.40;99.90;;;;;;4977895;28;20106;-73
2022/12/14 04:04:35;;;;;;;128.30;51.65;;;-2.50;99.90;;;;;;4997131;28;20030;-71
2022/12/14 04:07:24;;;;;;;123.40;51.45;;;-2.50;99.90;;;;;;4998033;28;20031;-72
2022/12/14 04:09:55;;;;;;;132.23;51.45;;;-2.50;99.90;;;;;;4998985;28;20077;-71
2022/12/14 04:21:27;;;;;;;122.07;50.73;;;-2.40;99.90;;;;;;4998551;28;20046;-72
2022/12/14 04:26:50;;;;;;;124.03;50.08;;;-2.40;99.90;;;;;;4979174;28;20034;-72
2022/12/14 04:32:12;;;;;;;131.25;51.35;;;-2.40;99.90;;;;;;4998287;28;20501;-71
2022/12/14 04:34:41;;;;;;;130.73;51.55;;;-2.40;99.90;;;;;;4990545;28;20057;-71
2022/12/14 04:37:12;;;;;;;131.98;50.08;;;-2.40;99.90;;;;;;4998011;28;20036;-70
2022/12/14 04:40:11;;;;;;;132.68;54.22;;;-2.40;99.90;;;;;;4998017;28;20033;-70
2022/12/14 04:42:49;;;;;;;133.18;52.45;;;-2.30;99.90;;;;;;4992254;28;20069;-71
2022/12/14 04:45:21;;;;;;;115.78;50.53;;;-2.40;99.90;;;;;;4995750;28;20084;-73
2022/12/14 04:48:06;;;;;;;120.55;50.65;;;-2.40;99.90;;;;;;4978132;28;20110;-72
2022/12/14 04:50:41;;;;;;;129.73;50.47;;;-2.40;99.90;;;;;;4977875;28;20023;-72
2022/12/14 04:53:13;;;;;;;122.18;51.47;;;-2.50;99.90;;;;;;4978531;28;20022;-71
2022/12/14 04:55:56;;;;;;;125.07;50.27;;;-2.60;99.90;;;;;;4976420;28;20046;-72
2022/12/14 04:58:25;;;;;;;134.95;52.97;;;-2.70;99.90;;;;;;4978019;28;20019;-71
2022/12/14 05:01:09;;;;;;;129.43;51.95;;;-2.70;99.90;;;;;;4978016;28;20458;-71
2022/12/14 05:03:47;;;;;;;129.00;51.30;;;-2.70;99.90;;;;;;4977867;28;20430;-72
2022/12/14 05:06:25;;;;;;;138.75;52.60;;;-2.70;99.90;;;;;;4978221;28;20031;-71
2022/12/14 05:09:11;;;;;;;127.65;51.10;;;-2.70;99.90;;;;;;4977032;28;20038;-71
2022/12/14 05:11:42;;;;;;;128.23;48.63;;;-2.70;99.90;;;;;;4982240;28;20557;-72
2022/12/14 05:14:18;;;;;;;117.90;48.08;;;-2.70;99.90;;;;;;4977942;28;20126;-71
2022/12/14 05:16:44;;;;;;;133.95;51.40;;;-2.60;99.90;;;;;;4979233;28;20046;-71
2022/12/14 05:19:09;;;;;;;140.80;55.22;;;-2.70;99.90;;;;;;4977648;28;20047;-71
2022/12/14 05:21:47;;;;;;;145.38;55.25;;;-2.70;99.90;;;;;;4986132;28;20029;-72
2022/12/14 05:24:13;;;;;;;133.73;51.20;;;-2.70;99.90;;;;;;4997283;28;20106;-71
2022/12/14 05:26:39;;;;;;;138.38;54.42;;;-2.60;99.90;;;;;;4996882;28;20027;-72
2022/12/14 05:29:05;;;;;;;143.90;52.38;;;-2.60;99.90;;;;;;4996333;28;20030;-71
2022/12/14 05:31:31;;;;;;;125.00;49.58;;;-2.60;99.90;;;;;;4996906;28;20074;-72
2022/12/14 05:33:56;;;;;;;137.75;53.10;;;-2.60;99.90;;;;;;4995450;28;20486;-72
2022/12/14 05:36:24;;;;;;;133.73;50.60;;;-2.60;99.90;;;;;;4997127;28;20084;-71
2022/12/14 05:38:50;;;;;;;126.30;49.42;;;-2.70;99.90;;;;;;4994851;28;20397;-72
2022/12/14 05:41:15;;;;;;;133.32;53.13;;;-2.70;99.90;;;;;;4993590;28;20102;-72
2022/12/14 05:43:41;;;;;;;127.93;51.30;;;-2.70;99.90;;;;;;4996659;28;20033;-71
2022/12/14 05:46:07;;;;;;;124.70;48.63;;;-2.70;99.90;;;;;;4995193;28;20018;-72
2022/12/14 05:48:34;;;;;;;142.57;49.22;;;-2.80;99.90;;;;;;4996507;28;20044;-71
2022/12/14 05:51:10;;;;;;;127.80;50.95;;;-2.80;99.90;;;;;;4994694;28;20034;-72
2022/12/14 05:53:37;;;;;;;128.02;50.17;;;-2.80;99.90;;;;;;4996505;28;20030;-71
2022/12/14 05:56:07;;;;;;;116.90;45.75;;;-2.90;99.90;;;;;;4997237;28;20105;-71
2022/12/14 05:58:34;;;;;;;124.95;49.42;;;-3.00;99.90;;;;;;4996676;28;20069;-72
2022/12/14 06:01:00;;;;;;;126.20;50.67;;;-3.00;99.90;;;;;;4996222;28;20034;-71
2022/12/14 06:03:27;;;;;;;125.45;50.95;;;-3.10;99.90;;;;;;4995031;28;20019;-71
2022/12/14 06:05:52;;;;;;;140.18;50.53;;;-3.00;99.90;;;;;;4996401;28;20030;-71
2022/12/14 06:08:18;;;;;;;117.93;44.75;;;-3.10;99.90;;;;;;4995589;28;20585;-71
2022/12/14 06:10:43;;;;;;;127.93;45.42;;;-3.20;99.90;;;;;;4996412;28;20403;-71
2022/12/14 06:13:09;;;;;;;123.20;47.30;;;-3.30;99.90;;;;;;4996299;28;20493;-72
2022/12/14 06:15:34;;;;;;;124.32;46.28;;;-3.30;99.90;;;;;;4996072;28;20089;-71
2022/12/14 06:18:00;;;;;;;122.07;43.85;;;-3.30;99.90;;;;;;4995921;28;20053;-71
2022/12/14 06:20:26;;;;;;;137.75;46.95;;;-3.30;99.90;;;;;;4995657;28;20041;-71
2022/12/14 06:22:53;;;;;;;124.22;48.25;;;-3.20;99.90;;;;;;4995945;28;20552;-71
2022/12/14 06:25:19;;;;;;;121.88;45.53;;;-3.20;99.90;;;;;;4996102;28;20026;-71
2022/12/14 06:27:45;;;;;;;113.00;44.42;;;-3.30;99.90;;;;;;4995629;28;20034;-71
2022/12/14 06:30:11;;;;;;;105.40;42.10;;;-3.40;99.90;;;;;;4995712;28;20026;-71
2022/12/14 06:32:36;;;;;;;125.55;45.67;;;-3.50;99.90;;;;;;4995846;28;20030;-72
2022/12/14 06:35:02;;;;;;;106.80;39.70;;;-3.70;99.90;;;;;;4995167;28;20129;-72
2022/12/14 06:37:30;;;;;;;104.35;39.78;;;-4.00;99.90;;;;;;4995522;28;20035;-72
2022/12/14 06:39:55;;;;;;;105.88;41.22;;;-4.20;99.90;;;;;;4995530;28;20029;-72
2022/12/14 06:42:21;;;;;;;113.97;44.35;;;-4.40;99.90;;;;;;4996056;28;20026;-71
2022/12/14 06:44:46;;;;;;;110.65;43.17;;;-4.50;99.90;;;;;;4995488;28;20045;-71
2022/12/14 06:47:12;;;;;;;112.05;45.95;;;-4.60;99.90;;;;;;4995080;28;20498;-72
2022/12/14 06:49:37;;;;;;;109.03;41.00;;;-4.60;99.90;;;;;;4996050;28;20109;-72
2022/12/14 06:52:03;;;;;;;106.05;41.45;;;-4.70;99.90;;;;;;4995578;28;20030;-71
2022/12/14 06:54:29;;;;;;;124.35;42.53;;;-4.80;99.90;;;;;;4995811;28;20026;-71
2022/12/14 06:56:54;;;;;;;122.72;43.60;;;-4.80;99.90;;;;;;4995443;28;20030;-72
2022/12/14 06:59:20;;;;;;;116.20;40.00;;;-4.80;99.90;;;;;;4995140;28;20041;-71
2022/12/14 07:01:45;;;;;;;114.93;43.33;;;-4.80;99.90;;;;;;4994855;28;20045;-72
2022/12/14 07:04:11;;;;;;;115.13;44.83;;;-4.70;99.90;;;;;;4995490;28;20018;-71
2022/12/14 07:06:39;;;;;;;116.63;40.83;;;-4.60;99.90;;;;;;4995152;28;20026;-73
2022/12/14 07:09:07;;;;;;;129.52;45.47;;;-4.70;99.90;;;;;;4995081;28;20101;-71
2022/12/14 07:11:34;;;;;;;124.00;44.13;;;-4.70;99.90;;;;;;4995127;28;20065;-71
2022/12/14 07:14:01;;;;;;;109.78;43.78;;;-4.30;99.90;;;;;;4995227;28;20157;-72
2022/12/14 07:16:31;;;;;;;124.97;46.35;;;-3.90;99.90;;;;;;4995001;28;20390;-71
2022/12/14 07:18:57;;;;;;;134.27;45.83;;;-3.70;99.90;;;;;;4994234;28;20117;-71
2022/12/14 07:21:23;;;;;;;112.38;43.30;;;-3.60;99.90;;;;;;4994878;28;20056;-71
2022/12/14 07:23:51;;;;;;;110.50;42.53;;;-3.50;99.90;;;;;;4994757;28;20026;-72
2022/12/14 07:26:25;;;;;;;117.68;46.13;;;-3.40;99.90;;;;;;4995383;28;20462;-71
2022/12/14 07:28:51;;;;;;;114.57;46.10;;;-3.30;99.90;;;;;;4995387;28;20030;-72
2022/12/14 07:31:19;;;;;;;111.47;43.40;;;-3.20;99.90;;;;;;4993734;28;20026;-72
2022/12/14 07:33:45;;;;;;;111.30;43.00;;;-3.30;99.90;;;;;;4994881;28;20022;-71
2022/12/14 07:36:14;;;;;;;119.65;44.13;;;-3.20;99.90;;;;;;4994615;28;20105;-71
2022/12/14 07:38:41;;;;;;;111.45;40.92;;;-3.30;99.90;;;;;;4995068;28;20381;-71
2022/12/14 07:41:09;;;;;;;122.15;40.92;;;-3.30;99.90;;;;;;4994302;28;20581;-72
2022/12/14 07:43:35;;;;;;;106.57;41.65;;;-3.30;99.90;;;;;;4993323;28;20081;-71
2022/12/14 07:46:03;;;;;;;110.25;40.88;;;-3.30;99.90;;;;;;4994870;28;20029;-71
2022/12/14 07:48:29;;;;;;;120.00;43.15;;;-3.20;99.90;;;;;;4994572;28;20094;-71
2022/12/14 07:51:04;;;;;;;109.70;40.85;;;-3.10;99.90;;;;;;4994038;28;20022;-71
2022/12/14 07:53:29;;;;;;;104.18;40.63;;;-2.90;99.90;;;;;;4994627;28;20022;-72
2022/12/14 07:55:58;;;;;;;106.15;41.50;;;-2.80;99.90;;;;;;4994838;28;20022;-72
2022/12/14 07:58:24;;;;;;;122.43;44.78;;;-2.70;99.90;;;;;;4994315;28;20500;-72
2022/12/14 08:00:49;;;;;;;100.00;40.15;;;-2.60;99.90;;;;;;4994429;28;20031;-72
2022/12/14 08:03:15;;;;;;;96.43;38.33;;;-2.60;99.90;;;;;;4994329;28;20030;-72
2022/12/14 08:05:40;;;;;;;100.10;40.13;;;-2.60;99.90;;;;;;4994806;28;20026;-72
2022/12/14 08:08:06;;;;;;;93.22;37.85;;;-2.60;99.90;;;;;;4994302;28;20505;-72
2022/12/14 08:10:31;;;;;;;96.95;37.38;;;-2.50;99.90;;;;;;4994391;28;20153;-72
2022/12/14 08:12:57;;;;;;;95.65;38.50;;;-2.50;99.90;;;;;;4994352;28;20022;-72
2022/12/14 08:15:22;;;;;;;101.22;39.28;;;-2.60;99.90;;;;;;4993016;28;20109;-73
2022/12/14 08:17:48;;;;;;;90.30;34.30;;;-2.80;99.90;;;;;;5014323;23;20453;-67
2022/12/14 08:20:14;;;;;;;89.40;36.72;;;-2.90;99.90;;;;;;4994046;28;20043;-67
2022/12/14 08:22:39;;;;;;;92.07;34.50;;;-3.00;99.90;;;;;;4993558;28;20026;-67
2022/12/14 08:25:05;;;;;;;81.60;32.58;;;-3.00;99.90;;;;;;4993547;28;20080;-66
2022/12/14 08:27:31;;;;;;;83.18;33.10;;;-3.10;99.90;;;;;;4993654;28;20490;-67
2022/12/14 08:29:56;;;;;;;84.63;34.83;;;-3.00;99.90;;;;;;4993995;28;20045;-66
2022/12/14 08:32:22;;;;;;;81.55;33.65;;;-3.00;99.90;;;;;;4993455;28;20080;-66
2022/12/14 08:34:47;;;;;;;85.32;33.40;;;-2.90;99.90;;;;;;4992883;28;20026;-66
2022/12/14 08:37:13;;;;;;;84.38;32.53;;;-2.70;99.90;;;;;;4993380;28;20096;-66
2022/12/14 08:39:38;;;;;;;82.10;32.88;;;-2.50;99.90;;;;;;4993257;28;20038;-66
2022/12/14 08:42:04;;;;;;;77.82;32.80;;;-2.30;99.90;;;;;;4995289;28;20023;-66
2022/12/14 08:44:29;;;;;;;78.93;31.95;;;-2.10;99.90;;;;;;4996846;28;20050;-66
2022/12/14 08:46:55;;;;;;;83.60;33.45;;;-1.90;99.90;;;;;;4997248;28;20386;-66
2022/12/14 08:49:20;;;;;;;75.60;32.58;;;-1.90;99.90;;;;;;4996888;28;20034;-66
2022/12/14 08:51:46;;;;;;;70.30;31.85;;;-2.00;99.90;;;;;;4987627;28;20038;-67
2022/12/14 08:54:11;;;;;;;70.88;30.90;;;-2.10;99.90;;;;;;4980182;28;20090;-66
2022/12/14 08:56:37;;;;;;;73.78;30.55;;;-2.40;99.90;;;;;;4995450;28;20022;-66
2022/12/14 08:59:03;;;;;;;65.97;29.63;;;-2.60;99.90;;;;;;4995789;28;20048;-66
2022/12/14 09:01:29;;;;;;;72.85;29.17;;;-2.80;99.90;;;;;;4996808;28;20548;-66
2022/12/14 09:03:55;;;;;;;63.08;29.20;;;-2.90;99.90;;;;;;4996696;28;20405;-66
2022/12/14 09:06:23;;;;;;;62.28;28.13;;;-3.10;99.90;;;;;;4996172;28;20019;-66
2022/12/14 09:08:49;;;;;;;64.97;27.20;;;-3.10;99.90;;;;;;4996819;28;20037;-66
2022/12/14 09:11:17;;;;;;;65.18;28.10;;;-3.10;99.90;;;;;;4996523;28;20406;-66
2022/12/14 09:13:43;;;;;;;70.00;28.30;;;-3.10;99.90;;;;;;4996468;28;20549;-66
2022/12/14 09:16:15;;;;;;;59.75;27.70;;;-3.00;99.90;;;;;;4996597;28;20030;-66
2022/12/14 09:18:41;;;;;;;70.47;28.45;;;-3.00;99.90;;;;;;4996513;28;20034;-66
2022/12/14 09:21:07;;;;;;;63.67;27.17;;;-3.10;99.90;;;;;;4996763;28;20581;-66
2022/12/14 09:23:34;;;;;;;60.60;25.42;;;-3.10;99.90;;;;;;4995853;28;20402;-66
2022/12/14 09:26:12;;;;;;;66.57;26.42;;;-3.10;99.90;;;;;;4996303;28;20018;-66
2022/12/14 09:28:40;;;;;;;51.92;26.23;;;-3.20;99.90;;;;;;4996188;28;20370;-66
2022/12/14 09:31:14;;;;;;;58.78;23.38;;;-3.10;99.90;;;;;;4995769;28;20085;-66
2022/12/14 09:33:40;;;;;;;64.35;26.05;;;-3.10;99.90;;;;;;4996200;28;20042;-66
2022/12/14 09:36:09;;;;;;;59.58;24.10;;;-3.00;99.90;;;;;;4996404;28;20027;-66
2022/12/14 09:38:36;;;;;;;55.45;22.15;;;-3.00;99.90;;;;;;4995975;28;20447;-66
2022/12/14 09:41:19;;;;;;;59.03;24.95;;;-2.90;99.90;;;;;;4996287;28;20022;-66
2022/12/14 09:44:00;;;;;;;57.97;23.85;;;-2.90;99.90;;;;;;4995560;28;20035;-66
2022/12/14 09:46:44;;;;;;;56.15;24.08;;;-2.90;99.90;;;;;;4996233;28;20069;-66
2022/12/14 09:49:30;;;;;;;47.75;21.95;;;-2.70;99.90;;;;;;4996185;28;20395;-66
2022/12/14 09:52:02;;;;;;;53.58;22.50;;;-2.50;99.90;;;;;;4995314;28;20128;-66
2022/12/14 09:54:32;;;;;;;51.42;22.90;;;-2.20;99.90;;;;;;4995552;28;20105;-66
2022/12/14 09:57:03;;;;;;;54.33;23.35;;;-2.00;99.90;;;;;;4995979;28;20486;-66
2022/12/14 09:59:32;;;;;;;43.95;19.80;;;-1.80;99.90;;;;;;4995018;28;20030;-66
2022/12/14 10:02:25;;;;;;;45.28;19.63;;;-1.50;99.90;;;;;;4994802;28;20446;-66
2022/12/14 10:05:27;;;;;;;38.27;19.43;;;-1.30;99.90;;;;;;4995674;28;20069;-66
2022/12/14 10:08:09;;;;;;;41.22;19.15;;;-1.40;99.90;;;;;;4995524;28;20340;-66
2022/12/14 10:11:02;;;;;;;41.13;19.95;;;-1.50;99.90;;;;;;4995769;28;20034;-66
2022/12/14 10:13:34;;;;;;;38.75;17.17;;;-1.80;99.90;;;;;;4995579;28;20486;-66
2022/12/14 10:16:14;;;;;;;41.95;18.40;;;-1.90;99.90;;;;;;4995689;28;20383;-66
2022/12/14 10:19:01;;;;;;;39.65;16.63;;;-2.00;99.90;;;;;;4995073;28;20389;-66
2022/12/14 10:21:37;;;;;;;30.73;15.43;;;-2.00;99.90;;;;;;4995574;28;20054;-67
2022/12/14 10:24:06;;;;;;;34.53;15.90;;;-2.10;99.90;;;;;;4994773;28;20030;-67
2022/12/14 10:26:37;;;;;;;39.05;16.50;;;-2.10;99.90;;;;;;4995377;28;20050;-66
2022/12/14 10:29:12;;;;;;;35.17;16.17;;;-2.00;99.90;;;;;;4995350;28;20038;-67
2022/12/14 10:32:12;;;;;;;37.50;17.13;;;-2.10;99.90;;;;;;4995190;28;20474;-67
2022/12/14 10:34:40;;;;;;;34.53;14.70;;;-2.00;99.90;;;;;;4994557;28;20022;-67
2022/12/14 10:37:24;;;;;;;39.53;16.38;;;-2.00;99.90;;;;;;4995241;28;20034;-67
2022/12/14 10:40:19;;;;;;;37.90;16.40;;;-2.00;99.90;;;;;;4995141;28;20042;-67
2022/12/14 10:43:15;;;;;;;34.38;15.18;;;-2.00;99.90;;;;;;4993900;28;20124;-67
2022/12/14 10:45:45;;;;;;;35.22;15.68;;;-1.90;99.90;;;;;;4994880;28;20030;-68
2022/12/14 10:49:01;;;;;;;30.40;15.55;;;-1.90;99.90;;;;;;4994570;28;20014;-67
2022/12/14 10:52:00;;;;;;;33.92;16.23;;;-1.90;99.90;;;;;;4951487;28;20049;-67
2022/12/14 10:54:45;;;;;;;35.45;15.25;;;-1.90;99.90;;;;;;4976524;28;20038;-67
2022/12/14 10:57:23;;;;;;;33.80;16.10;;;-1.90;99.90;;;;;;4994711;28;20124;-67
2022/12/14 10:59:50;;;;;;;35.58;16.73;;;-1.80;99.90;;;;;;4994515;28;20026;-66
2022/12/14 11:02:21;;;;;;;44.72;18.10;;;-1.70;99.90;;;;;;4994767;28;20433;-66
2022/12/14 11:04:59;;;;;;;38.65;18.08;;;-1.70;99.90;;;;;;4993946;28;20027;-67
2022/12/14 11:07:26;;;;;;;39.80;18.08;;;-1.70;99.90;;;;;;4994001;28;20030;-67
2022/12/14 11:09:52;;;;;;;40.83;19.17;;;-1.70;99.90;;;;;;4993789;28;20057;-67
2022/12/14 11:12:27;;;;;;;40.08;17.67;;;-1.70;99.90;;;;;;4994401;28;20054;-67
2022/12/14 11:14:57;;;;;;;31.90;15.50;;;-1.80;99.90;;;;;;4994566;28;20096;-67
2022/12/14 11:17:35;;;;;;;34.70;16.40;;;-1.90;99.90;;;;;;4994324;28;20050;-67
2022/12/14 11:20:26;;;;;;;29.10;14.07;;;-1.90;99.90;;;;;;4994390;28;20394;-66
2022/12/14 11:23:07;;;;;;;31.77;15.30;;;-1.90;99.90;;;;;;4975050;28;20153;-66
2022/12/14 11:25:40;;;;;;;28.35;14.63;;;-1.90;99.90;;;;;;4974739;28;20475;-67
2022/12/14 11:28:15;;;;;;;30.38;15.35;;;-1.90;99.90;;;;;;4974820;28;20034;-67
2022/12/14 11:31:02;;;;;;;33.00;15.27;;;-1.90;99.90;;;;;;4974407;28;20038;-67
2022/12/14 11:33:44;;;;;;;32.85;14.77;;;-1.80;99.90;;;;;;4989902;28;20038;-67
2022/12/14 11:36:27;;;;;;;36.33;16.63;;;-1.80;99.90;;;;;;4993981;28;20517;-66
2022/12/14 11:39:05;;;;;;;34.55;16.20;;;-1.80;99.90;;;;;;4993882;28;20309;-67
2022/12/14 11:41:38;;;;;;;35.03;16.63;;;-1.80;99.90;;;;;;4994208;28;20042;-67
2022/12/14 11:44:15;;;;;;;34.03;16.73;;;-1.80;99.90;;;;;;4992634;28;20018;-67
2022/12/14 11:46:52;;;;;;;35.25;15.90;;;-1.90;99.90;;;;;;4993918;28;20106;-66
2022/12/14 11:49:21;;;;;;;33.85;14.93;;;-1.90;99.90;;;;;;4993870;28;20053;-67
2022/12/14 11:52:12;;;;;;;39.03;16.52;;;-1.80;99.90;;;;;;4993907;28;20030;-67
2022/12/14 11:54:42;;;;;;;36.65;16.98;;;-1.80;99.90;;;;;;4991740;28;20041;-67
2022/12/14 11:57:10;;;;;;;38.50;16.67;;;-1.80;99.90;;;;;;4993205;28;20387;-67
2022/12/14 11:59:46;;;;;;;31.77;14.10;;;-1.80;99.90;;;;;;4993668;28;20027;-67
2022/12/14 12:02:21;;;;;;;37.20;15.25;;;-1.80;99.90;;;;;;4993970;28;20026;-67
2022/12/14 12:04:52;;;;;;;36.80;15.52;;;-1.70;99.90;;;;;;4993951;28;20081;-66
2022/12/14 12:07:28;;;;;;;41.95;15.25;;;-1.70;99.90;;;;;;4993336;28;20025;-67
2022/12/14 12:09:58;;;;;;;28.38;14.20;;;-1.70;99.90;;;;;;4993687;28;20034;-67
2022/12/14 12:12:24;;;;;;;32.75;16.20;;;-1.60;99.90;;;;;;4994207;28;20046;-66
2022/12/14 12:14:54;;;;;;;32.78;15.40;;;-1.60;99.90;;;;;;4993651;28;20022;-66
2022/12/14 12:17:39;;;;;;;32.35;15.95;;;-1.50;99.90;;;;;;4995807;28;20084;-67
2022/12/14 12:20:43;;;;;;;33.17;14.98;;;-1.40;99.90;;;;;;4997758;28;20038;-67
2022/12/14 12:23:34;;;;;;;35.60;16.95;;;-1.40;99.90;;;;;;4987980;28;20117;-67
2022/12/14 12:26:03;;;;;;;36.92;15.30;;;-1.20;99.90;;;;;;4997720;28;20034;-67
2022/12/14 12:28:34;;;;;;;40.67;15.32;;;-1.10;99.90;;;;;;4997327;28;20050;-66
2022/12/14 12:31:06;;;;;;;30.45;15.65;;;-0.90;99.90;;;;;;4997644;28;20014;-66
2022/12/14 12:33:41;;;;;;;33.25;15.68;;;-0.80;99.90;;;;;;4996798;28;20033;-68
2022/12/14 12:36:07;;;;;;;28.70;15.10;;;-0.40;99.90;;;;;;4997551;28;20018;-69
2022/12/14 12:39:05;;;;;;;33.58;16.52;;;0.00;99.90;;;;;;4997365;28;20026;-69
2022/12/14 12:41:38;;;;;;;38.88;15.80;;;0.30;99.90;;;;;;4997239;28;20054;-69
2022/12/14 12:44:24;;;;;;;38.13;17.02;;;0.50;99.90;;;;;;4997707;28;20463;-69
2022/12/14 12:46:59;;;;;;;29.50;14.32;;;0.80;99.90;;;;;;4997374;28;20134;-69
2022/12/14 12:49:24;;;;;;;33.47;15.85;;;0.90;99.90;;;;;;4997542;28;20105;-69
2022/12/14 12:51:58;;;;;;;32.92;14.73;;;0.60;99.90;;;;;;4997261;28;20461;-69
2022/12/14 12:54:34;;;;;;;32.40;15.82;;;0.90;99.90;;;;;;4996655;28;20394;-70
2022/12/14 12:57:01;;;;;;;34.65;16.70;;;1.10;99.90;;;;;;4996956;28;20097;-69
2022/12/14 12:59:35;;;;;;;31.85;15.73;;;1.40;99.90;;;;;;4996699;28;20486;-68
2022/12/14 13:02:28;;;;;;;34.97;16.27;;;1.70;99.90;;;;;;4997312;28;20026;-68
2022/12/14 13:04:55;;;;;;;29.48;14.48;;;2.20;99.90;;;;;;4996451;28;20049;-69